createdAt,value
2018-07-25T00:01:15.571Z,19.64
2018-07-25T00:03:44.211Z,19.66
2018-07-25T00:06:12.894Z,19.64
2018-07-25T00:08:41.546Z,19.62
2018-07-25T00:11:10.175Z,19.64
2018-07-25T00:13:38.863Z,19.59
2018-07-25T00:16:07.763Z,19.54
2018-07-25T00:18:36.455Z,19.54
2018-07-25T00:21:05.186Z,19.50
2018-07-25T00:23:33.852Z,19.50
2018-07-25T00:26:02.472Z,19.55
2018-07-25T00:28:31.112Z,19.56
2018-07-25T00:30:59.791Z,19.58
2018-07-25T00:33:28.430Z,19.59
2018-07-25T00:35:57.359Z,19.60
2018-07-25T00:38:25.947Z,19.60
2018-07-25T00:40:54.570Z,19.55
2018-07-25T00:43:23.196Z,19.56
2018-07-25T00:45:51.805Z,19.53
2018-07-25T00:48:20.729Z,19.57
2018-07-25T00:50:49.430Z,19.54
2018-07-25T00:53:18.083Z,19.54
2018-07-25T00:55:46.788Z,19.57
2018-07-25T00:58:15.378Z,19.58
2018-07-25T01:00:43.989Z,19.56
2018-07-25T01:03:12.822Z,19.56
2018-07-25T01:05:41.462Z,19.47
2018-07-25T01:08:10.156Z,19.47
2018-07-25T01:10:42.755Z,19.54
2018-07-25T01:13:12.346Z,19.59
2018-07-25T01:15:41.259Z,19.57
2018-07-25T01:18:09.952Z,19.59
2018-07-25T01:20:38.681Z,19.55
2018-07-25T01:23:07.512Z,19.58
2018-07-25T01:25:36.219Z,19.58
2018-07-25T01:28:04.965Z,19.52
2018-07-25T01:30:33.578Z,19.53
2018-07-25T01:33:02.419Z,19.58
2018-07-25T01:35:31.037Z,19.55
2018-07-25T01:38:00.757Z,19.53
2018-07-25T01:40:29.465Z,19.50
2018-07-25T01:42:58.182Z,19.46
2018-07-25T01:45:26.855Z,19.45
2018-07-25T01:47:55.474Z,19.46
2018-07-25T01:50:24.086Z,19.39
2018-07-25T01:52:53.117Z,19.36
2018-07-25T01:55:21.773Z,19.41
2018-07-25T01:57:50.395Z,19.38
2018-07-25T02:00:19.295Z,19.38
2018-07-25T02:02:47.966Z,19.32
2018-07-25T02:05:16.610Z,19.36
2018-07-25T02:07:45.894Z,19.26
2018-07-25T02:10:14.515Z,19.24
2018-07-25T02:12:43.160Z,19.25
2018-07-25T02:15:11.831Z,19.24
2018-07-25T02:17:40.559Z,19.28
2018-07-25T02:20:09.499Z,19.15
2018-07-25T02:22:38.126Z,19.16
2018-07-25T02:25:06.815Z,19.16
2018-07-25T02:27:35.694Z,19.14
2018-07-25T02:30:05.636Z,19.13
2018-07-25T02:32:34.290Z,19.13
2018-07-25T02:35:03.396Z,19.10
2018-07-25T02:37:32.343Z,19.14
2018-07-25T02:40:00.995Z,19.17
2018-07-25T02:42:29.731Z,19.11
2018-07-25T02:44:58.369Z,19.12
2018-07-25T02:47:27.421Z,19.13
2018-07-25T02:49:56.067Z,19.14
2018-07-25T02:52:24.976Z,19.14
2018-07-25T02:54:53.599Z,19.16
2018-07-25T02:57:22.489Z,19.12
2018-07-25T02:59:51.092Z,18.92
2018-07-25T03:02:19.750Z,19.11
2018-07-25T03:04:48.712Z,19.12
2018-07-25T03:07:17.669Z,19.12
2018-07-25T03:09:46.600Z,19.13
2018-07-25T03:12:15.660Z,19.10
2018-07-25T03:14:44.299Z,19.14
2018-07-25T03:17:13.287Z,18.70
2018-07-25T03:19:41.945Z,19.17
2018-07-25T03:22:10.546Z,19.20
2018-07-25T03:24:39.231Z,19.19
2018-07-25T03:27:08.218Z,19.22
2018-07-25T03:29:36.867Z,19.23
2018-07-25T03:32:05.499Z,19.21
2018-07-25T03:34:34.148Z,19.20
2018-07-25T03:37:02.783Z,17.85
2018-07-25T03:39:31.459Z,19.22
2018-07-25T03:42:00.607Z,19.22
2018-07-25T03:44:29.218Z,19.30
2018-07-25T03:46:57.972Z,19.33
2018-07-25T03:49:26.838Z,19.33
2018-07-25T03:51:55.474Z,19.36
2018-07-25T03:54:24.403Z,19.39
2018-07-25T03:56:53.067Z,19.43
2018-07-25T03:59:21.729Z,19.40
2018-07-25T04:01:50.714Z,19.39
2018-07-25T04:04:19.637Z,19.38
2018-07-25T04:06:48.341Z,19.42
2018-07-25T04:09:17.029Z,19.43
2018-07-25T04:11:46.096Z,19.44
2018-07-25T04:14:14.731Z,19.40
2018-07-25T04:16:43.686Z,19.44
2018-07-25T04:19:12.599Z,19.47
2018-07-25T04:21:41.246Z,19.44
2018-07-25T04:24:09.879Z,19.42
2018-07-25T04:26:38.543Z,19.46
2018-07-25T04:29:07.175Z,19.49
2018-07-25T04:31:36.236Z,19.56
2018-07-25T04:34:04.940Z,19.65
2018-07-25T04:36:33.894Z,19.71
2018-07-25T04:39:02.563Z,19.77
2018-07-25T04:41:31.527Z,19.78
2018-07-25T04:44:00.580Z,19.82
2018-07-25T04:46:29.216Z,19.88
2018-07-25T04:48:58.477Z,19.84
2018-07-25T04:51:27.375Z,19.87
2018-07-25T04:53:56.016Z,19.89
2018-07-25T04:56:24.705Z,19.90
2018-07-25T04:58:53.300Z,19.89
2018-07-25T05:01:21.950Z,19.97
2018-07-25T05:03:50.574Z,19.95
2018-07-25T05:06:19.252Z,19.98
2018-07-25T05:08:47.906Z,19.98
2018-07-25T05:11:16.891Z,20.08
2018-07-25T05:13:45.539Z,20.04
2018-07-25T05:16:14.177Z,20.04
2018-07-25T05:21:16.623Z,20.08
2018-07-25T05:23:45.248Z,20.22
2018-07-25T05:26:13.855Z,20.46
2018-07-25T05:28:42.512Z,20.74
2018-07-25T05:31:11.155Z,21.49
2018-07-25T05:33:39.848Z,22.20
2018-07-25T05:36:08.501Z,23.15
2018-07-25T05:38:37.175Z,23.17
2018-07-25T05:41:05.843Z,23.03
2018-07-25T05:43:34.454Z,23.15
2018-07-25T05:46:03.412Z,23.24
2018-07-25T05:48:32.084Z,23.94
2018-07-25T05:51:00.971Z,23.96
2018-07-25T05:53:29.629Z,23.32
2018-07-25T05:55:58.288Z,22.58
2018-07-25T05:58:26.928Z,21.90
2018-07-25T06:00:55.624Z,21.99
2018-07-25T06:03:24.300Z,21.54
2018-07-25T06:05:53.060Z,21.29
2018-07-25T06:08:21.757Z,21.05
2018-07-25T06:10:50.490Z,21.04
2018-07-25T06:13:19.215Z,21.09
2018-07-25T06:15:47.882Z,21.15
2018-07-25T06:18:16.535Z,21.23
2018-07-25T06:20:45.232Z,21.25
2018-07-25T06:23:13.916Z,21.20
2018-07-25T06:25:42.575Z,21.04
2018-07-25T06:28:11.196Z,20.96
2018-07-25T06:30:39.948Z,20.97
2018-07-25T06:33:08.607Z,21.03
2018-07-25T06:35:37.223Z,21.17
2018-07-25T06:38:05.959Z,21.29
2018-07-25T06:40:34.636Z,21.59
2018-07-25T06:43:03.332Z,21.46
2018-07-25T06:45:32.064Z,21.36
2018-07-25T06:48:00.874Z,21.22
2018-07-25T06:50:29.485Z,21.13
2018-07-25T06:52:58.210Z,20.97
2018-07-25T06:55:26.884Z,21.07
2018-07-25T06:57:55.552Z,21.04
2018-07-25T07:00:24.328Z,20.96
2018-07-25T07:02:53.028Z,20.89
2018-07-25T07:05:21.654Z,20.89
2018-07-25T07:07:50.384Z,20.85
2018-07-25T07:10:19.051Z,20.81
2018-07-25T07:12:47.690Z,20.91
2018-07-25T07:15:16.411Z,21.33
2018-07-25T07:17:45.084Z,21.44
2018-07-25T07:20:13.795Z,21.64
2018-07-25T07:22:42.470Z,21.73
2018-07-25T07:25:11.430Z,21.88
2018-07-25T07:27:40.233Z,21.79
2018-07-25T07:30:09.120Z,21.72
2018-07-25T07:32:38.035Z,21.44
2018-07-25T07:35:06.729Z,21.67
2018-07-25T07:37:35.470Z,21.74
2018-07-25T07:40:04.238Z,22.36
2018-07-25T07:42:32.919Z,22.57
2018-07-25T07:45:01.621Z,22.55
2018-07-25T07:47:30.342Z,22.32
2018-07-25T07:49:59.115Z,22.35
2018-07-25T07:52:28.170Z,22.48
2018-07-25T07:54:57.096Z,22.35
2018-07-25T07:57:25.985Z,22.56
2018-07-25T07:59:55.002Z,22.99
2018-07-25T08:02:23.830Z,22.95
2018-07-25T08:04:52.552Z,22.77
2018-07-25T08:07:21.239Z,22.73
2018-07-25T08:09:49.943Z,23.10
2018-07-25T08:12:18.594Z,24.11
2018-07-25T08:14:47.360Z,24.01
2018-07-25T08:17:16.384Z,24.11
2018-07-25T08:19:45.128Z,23.91
2018-07-25T08:22:13.833Z,24.17
2018-07-25T08:24:42.504Z,24.28
2018-07-25T08:27:11.170Z,23.70
2018-07-25T08:29:39.818Z,23.64
2018-07-25T08:32:08.451Z,23.50
2018-07-25T08:34:37.440Z,23.35
2018-07-25T08:37:06.061Z,23.11
2018-07-25T08:39:34.773Z,23.13
2018-07-25T08:42:03.875Z,23.07
2018-07-25T08:44:32.524Z,23.18
2018-07-25T08:47:01.149Z,23.19
2018-07-25T08:49:29.758Z,23.10
2018-07-25T08:51:58.390Z,23.03
2018-07-25T08:54:27.120Z,22.94
2018-07-25T08:56:55.771Z,22.64
2018-07-25T08:59:24.448Z,22.65
2018-07-25T09:01:53.165Z,22.49
2018-07-25T09:04:21.847Z,22.34
2018-07-25T09:06:50.523Z,22.18
2018-07-25T09:09:19.174Z,22.09
2018-07-25T09:11:47.897Z,21.94
2018-07-25T09:14:16.551Z,21.52
2018-07-25T09:16:45.317Z,21.18
2018-07-25T09:19:14.074Z,20.90
2018-07-25T09:21:42.722Z,20.81
2018-07-25T09:24:11.449Z,20.75
2018-07-25T09:26:40.181Z,20.62
2018-07-25T09:29:08.870Z,20.52
2018-07-25T09:31:37.663Z,20.42
2018-07-25T09:34:06.457Z,20.52
2018-07-25T09:36:35.198Z,20.52
2018-07-25T09:39:05.344Z,20.38
2018-07-25T09:41:34.078Z,20.33
2018-07-25T09:44:03.104Z,20.42
2018-07-25T09:46:32.091Z,20.55
2018-07-25T09:49:01.429Z,20.65
2018-07-25T09:51:30.255Z,20.64
2018-07-25T09:53:58.907Z,20.63
2018-07-25T09:56:27.603Z,20.65
2018-07-25T09:58:56.288Z,20.72
2018-07-25T10:01:24.997Z,20.91
2018-07-25T10:03:53.728Z,21.18
2018-07-25T10:06:22.415Z,21.21
2018-07-25T10:08:51.383Z,21.36
2018-07-25T10:11:22.229Z,21.38
2018-07-25T10:13:51.364Z,21.18
2018-07-25T10:16:20.069Z,21.31
2018-07-25T10:18:49.083Z,21.67
2018-07-25T10:21:17.751Z,21.93
2018-07-25T10:23:46.499Z,22.35
2018-07-25T10:26:15.320Z,22.29
2018-07-25T10:28:44.095Z,22.50
2018-07-25T10:31:12.795Z,22.42
2018-07-25T10:33:41.611Z,22.22
2018-07-25T10:36:10.302Z,22.24
2018-07-25T10:38:39.254Z,22.35
2018-07-25T10:41:08.287Z,22.38
2018-07-25T10:43:37.008Z,22.36
2018-07-25T10:46:05.772Z,22.59
2018-07-25T10:48:34.468Z,22.82
2018-07-25T10:51:03.334Z,22.83
2018-07-25T10:53:31.994Z,22.58
2018-07-25T10:56:00.965Z,22.65
2018-07-25T10:58:29.615Z,22.63
2018-07-25T11:00:58.251Z,22.63
2018-07-25T11:03:27.066Z,22.59
2018-07-25T11:05:55.796Z,22.66
2018-07-25T11:08:24.471Z,22.77
2018-07-25T11:10:53.131Z,22.91
2018-07-25T11:13:21.839Z,22.85
2018-07-25T11:15:50.644Z,23.17
2018-07-25T11:18:19.342Z,24.20
2018-07-25T11:20:49.012Z,24.45
2018-07-25T11:23:17.759Z,24.29
2018-07-25T11:25:46.730Z,24.15
2018-07-25T11:28:15.352Z,23.90
2018-07-25T11:30:43.988Z,24.33
2018-07-25T11:33:12.680Z,25.04
2018-07-25T11:35:41.292Z,25.04
2018-07-25T11:38:10.039Z,24.79
2018-07-25T11:40:38.681Z,24.95
2018-07-25T11:43:07.392Z,24.87
2018-07-25T11:45:36.258Z,25.13
2018-07-25T11:48:05.022Z,25.52
2018-07-25T11:50:34.080Z,26.42
2018-07-25T11:53:02.715Z,28.22
2018-07-25T11:55:31.416Z,28.56
2018-07-25T11:58:00.053Z,28.62
2018-07-25T12:00:28.738Z,28.40
2018-07-25T12:02:57.709Z,27.77
2018-07-25T12:05:26.331Z,26.65
2018-07-25T12:07:55.009Z,25.93
2018-07-25T12:10:23.703Z,25.46
2018-07-25T12:12:52.675Z,26.28
2018-07-25T12:15:21.382Z,25.84
2018-07-25T12:17:50.080Z,24.84
2018-07-25T12:20:18.703Z,24.71
2018-07-25T12:22:47.412Z,24.70
2018-07-25T12:25:16.161Z,24.59
2018-07-25T12:27:44.819Z,24.65
2018-07-25T12:30:13.536Z,24.62
2018-07-25T12:32:42.218Z,24.99
2018-07-25T12:35:10.854Z,25.29
2018-07-25T12:37:39.577Z,25.47
2018-07-25T12:40:08.372Z,25.92
2018-07-25T12:42:37.146Z,25.89
2018-07-25T12:45:06.116Z,26.56
2018-07-25T12:47:34.966Z,26.96
2018-07-25T12:50:03.743Z,27.06
2018-07-25T12:52:32.398Z,27.26
2018-07-25T12:55:00.993Z,26.92
2018-07-25T12:57:29.969Z,26.47
2018-07-25T12:59:58.722Z,26.42
2018-07-25T13:02:27.407Z,26.56
2018-07-25T13:04:56.401Z,26.04
2018-07-25T13:07:25.081Z,26.25
2018-07-25T13:09:53.835Z,26.51
2018-07-25T13:12:22.894Z,26.81
2018-07-25T13:14:52.772Z,26.48
2018-07-25T13:17:21.512Z,26.10
2018-07-25T13:19:50.579Z,26.02
2018-07-25T13:22:19.368Z,26.16
2018-07-25T13:24:48.238Z,26.19
2018-07-25T13:27:16.933Z,26.41
2018-07-25T13:29:45.668Z,26.12
2018-07-25T13:32:14.546Z,25.97
2018-07-25T13:34:43.301Z,26.73
2018-07-25T13:37:12.070Z,26.85
2018-07-25T13:39:40.814Z,26.29
2018-07-25T13:42:09.509Z,26.47
2018-07-25T13:44:38.302Z,27.87
2018-07-25T13:47:07.135Z,30.17
2018-07-25T13:49:35.841Z,31.05
2018-07-25T13:52:04.684Z,31.27
2018-07-25T13:54:33.333Z,28.41
2018-07-25T13:57:02.268Z,26.81
2018-07-25T13:59:31.309Z,26.46
2018-07-25T14:01:59.971Z,26.15
2018-07-25T14:04:28.713Z,26.05
2018-07-25T14:06:57.531Z,26.12
2018-07-25T14:09:26.158Z,25.97
2018-07-25T14:11:54.810Z,25.95
2018-07-25T14:14:23.543Z,25.97
2018-07-25T14:16:52.486Z,26.04
2018-07-25T14:19:21.246Z,26.19
2018-07-25T14:21:49.989Z,25.99
2018-07-25T14:24:19.170Z,25.90
2018-07-25T14:26:48.073Z,25.63
2018-07-25T14:29:16.732Z,25.14
2018-07-25T14:31:45.426Z,24.73
2018-07-25T14:34:17.479Z,24.63
2018-07-25T14:36:46.464Z,24.57
2018-07-25T14:39:15.162Z,24.86
2018-07-25T14:41:44.404Z,24.97
2018-07-25T14:44:13.064Z,25.01
2018-07-25T14:46:41.813Z,24.95
2018-07-25T14:49:10.401Z,24.82
2018-07-25T14:51:39.048Z,24.82
2018-07-25T14:54:07.814Z,24.77
2018-07-25T14:56:36.533Z,24.82
2018-07-25T14:59:05.280Z,24.85
2018-07-25T15:01:33.972Z,24.81
2018-07-25T15:04:02.648Z,24.74
2018-07-25T15:06:31.562Z,24.91
2018-07-25T15:09:00.513Z,25.04
2018-07-25T15:11:29.288Z,25.02
2018-07-25T15:13:57.983Z,25.11
2018-07-25T15:16:26.910Z,25.01
2018-07-25T15:18:55.887Z,24.80
2018-07-25T15:21:24.552Z,24.76
2018-07-25T15:24:02.493Z,24.71
2018-07-25T15:26:31.432Z,24.71
2018-07-25T15:29:00.879Z,24.64
2018-07-25T15:31:29.999Z,24.63
2018-07-25T15:33:58.896Z,24.62
2018-07-25T15:36:44.498Z,24.53
2018-07-25T15:39:20.978Z,24.60
2018-07-25T15:41:50.483Z,24.63
2018-07-25T15:44:20.189Z,24.68
2018-07-25T15:46:49.507Z,24.87
2018-07-25T15:49:18.245Z,24.76
2018-07-25T15:51:47.045Z,24.71
2018-07-25T15:54:15.809Z,24.84
2018-07-25T15:56:44.671Z,24.84
2018-07-25T15:59:13.360Z,24.79
2018-07-25T16:01:42.093Z,24.71
2018-07-25T16:04:11.186Z,24.71
2018-07-25T16:06:40.237Z,24.71
2018-07-25T16:09:11.424Z,24.69
2018-07-25T16:11:40.667Z,24.58
2018-07-25T16:14:09.512Z,24.51
2018-07-25T16:16:38.479Z,24.39
2018-07-25T16:19:07.273Z,24.26
2018-07-25T16:21:36.249Z,24.26
2018-07-25T16:24:05.045Z,24.18
2018-07-25T16:26:33.673Z,24.10
2018-07-25T16:29:03.116Z,23.99
2018-07-25T16:31:31.863Z,23.82
2018-07-25T16:34:01.206Z,23.58
2018-07-25T16:36:29.906Z,23.50
2018-07-25T16:38:58.606Z,23.33
2018-07-25T16:41:27.378Z,23.32
2018-07-25T16:43:56.473Z,23.33
2018-07-25T16:46:25.277Z,23.19
2018-07-25T16:48:54.415Z,23.19
2018-07-25T16:51:23.930Z,23.07
2018-07-25T16:53:52.917Z,23.03
2018-07-25T16:56:21.919Z,22.84
2018-07-25T16:58:50.894Z,22.86
2018-07-25T17:01:19.586Z,22.83
2018-07-25T17:03:48.321Z,22.63
2018-07-25T17:06:17.130Z,22.51
2018-07-25T17:08:45.962Z,22.47
2018-07-25T17:11:14.583Z,22.40
2018-07-25T17:13:43.817Z,22.37
2018-07-25T17:16:12.833Z,22.39
2018-07-25T17:18:41.911Z,22.32
2018-07-25T17:21:11.002Z,22.34
2018-07-25T17:23:40.126Z,22.11
2018-07-25T17:26:09.214Z,21.98
2018-07-25T17:28:38.204Z,22.09
2018-07-25T17:31:07.366Z,22.14
2018-07-25T17:33:36.325Z,22.15
2018-07-25T17:36:05.073Z,22.14
2018-07-25T17:38:34.035Z,22.10
2018-07-25T17:41:02.791Z,22.12
2018-07-25T17:43:31.718Z,22.09
2018-07-25T17:46:00.427Z,22.03
2018-07-25T17:48:29.172Z,22.00
2018-07-25T17:50:57.881Z,21.93
2018-07-25T17:53:27.448Z,21.89
2018-07-25T17:55:56.582Z,21.88
2018-07-25T17:58:25.650Z,21.79
2018-07-25T18:00:54.324Z,21.74
2018-07-25T18:03:23.344Z,21.66
2018-07-25T18:05:52.363Z,21.64
2018-07-25T18:08:21.412Z,21.57
2018-07-25T18:10:50.222Z,21.51
2018-07-25T18:13:24.117Z,21.50
2018-07-25T18:15:53.148Z,21.48
2018-07-25T18:18:23.524Z,21.45
2018-07-25T18:20:52.238Z,21.46
2018-07-25T18:23:21.207Z,21.38
2018-07-25T18:25:50.144Z,21.39
2018-07-25T18:28:18.847Z,21.36
2018-07-25T18:30:47.578Z,21.34
2018-07-25T18:33:16.365Z,21.33
2018-07-25T18:35:45.125Z,21.36
2018-07-25T18:38:13.793Z,21.32
2018-07-25T18:40:42.558Z,21.26
2018-07-25T18:43:11.264Z,21.30
2018-07-25T18:45:40.397Z,21.32
2018-07-25T18:48:09.602Z,21.29
2018-07-25T18:55:55.607Z,21.21
2018-07-25T18:58:24.285Z,21.20
2018-07-25T19:00:53.373Z,21.16
2018-07-25T19:03:22.275Z,21.18
2018-07-25T19:05:50.903Z,21.15
2018-07-25T19:08:19.543Z,21.13
2018-07-25T19:10:48.198Z,21.15
2018-07-25T19:13:21.943Z,21.15
2018-07-25T19:15:51.203Z,21.16
2018-07-25T19:18:20.143Z,21.10
2018-07-25T19:20:49.319Z,21.11
2018-07-25T19:23:18.045Z,21.13
2018-07-25T19:25:47.017Z,21.11
2018-07-25T19:28:16.106Z,21.05
2018-07-25T19:30:45.003Z,19.43
2018-07-25T19:33:13.674Z,20.93
2018-07-25T19:35:42.842Z,20.87
2018-07-25T19:38:11.506Z,20.84
2018-07-25T19:40:40.130Z,20.81
2018-07-25T19:43:08.814Z,20.77
2018-07-25T19:45:37.594Z,20.74
2018-07-25T19:48:06.467Z,20.72
2018-07-25T19:50:35.219Z,20.69
2018-07-25T19:53:06.943Z,20.65
2018-07-25T19:55:35.853Z,20.60
2018-07-25T19:58:04.923Z,20.54
2018-07-25T20:00:33.814Z,20.48
2018-07-25T20:03:02.792Z,20.47
2018-07-25T20:05:31.725Z,20.43
2018-07-25T20:08:00.894Z,20.41
2018-07-25T20:10:29.886Z,19.30
2018-07-25T20:12:58.637Z,20.34
2018-07-25T20:15:32.298Z,20.29
2018-07-25T20:18:01.272Z,20.27
2018-07-25T20:20:30.870Z,20.22
2018-07-25T20:22:59.487Z,20.23
2018-07-25T20:25:28.152Z,20.18
2018-07-25T20:27:57.102Z,20.19
2018-07-25T20:30:25.764Z,20.17
2018-07-25T20:32:55.058Z,20.15
2018-07-25T20:35:23.774Z,20.14
2018-07-25T20:37:52.448Z,20.13
2018-07-25T20:40:21.123Z,20.08
2018-07-25T20:42:49.903Z,20.04
2018-07-25T20:45:18.605Z,19.98
2018-07-25T20:47:47.269Z,19.92
2018-07-25T20:50:15.886Z,19.88
2018-07-25T20:52:44.596Z,19.86
2018-07-25T20:55:14.001Z,19.83
2018-07-25T20:57:42.652Z,19.79
2018-07-25T21:00:11.558Z,19.78
2018-07-25T21:02:40.242Z,19.74
2018-07-25T21:05:08.915Z,19.73
2018-07-25T21:07:37.595Z,19.62
2018-07-25T21:10:06.335Z,19.63
2018-07-25T21:12:34.945Z,19.63
2018-07-25T21:15:03.658Z,19.56
2018-07-25T21:17:32.639Z,19.58
2018-07-25T21:20:01.273Z,18.59
2018-07-25T21:22:29.980Z,19.74
2018-07-25T21:24:58.635Z,19.66
2018-07-25T21:27:27.210Z,19.62
2018-07-25T21:29:55.835Z,19.64
2018-07-25T21:32:24.863Z,19.68
2018-07-25T21:34:53.517Z,19.66
2018-07-25T21:37:22.139Z,19.66
2018-07-25T21:39:50.827Z,19.63
2018-07-25T21:42:19.510Z,19.58
2018-07-25T21:44:48.158Z,19.54
2018-07-25T21:47:16.759Z,19.47
2018-07-25T21:49:45.446Z,19.44
2018-07-25T21:52:14.106Z,19.40
2018-07-25T21:54:42.814Z,19.36
2018-07-25T21:57:11.501Z,19.35
2018-07-25T21:59:40.195Z,19.33
2018-07-25T22:02:09.172Z,19.31
2018-07-25T22:04:38.115Z,19.31
2018-07-25T22:07:06.883Z,19.31
2018-07-25T22:09:35.513Z,19.31
2018-07-25T22:12:04.133Z,19.24
2018-07-25T22:14:32.842Z,19.24
2018-07-25T22:17:01.470Z,19.16
2018-07-25T22:19:30.110Z,19.12
2018-07-25T22:21:58.787Z,19.19
2018-07-25T22:24:27.688Z,19.22
2018-07-25T22:26:56.348Z,19.20
2018-07-25T22:29:25.096Z,19.21
2018-07-25T22:31:54.099Z,19.12
2018-07-25T22:34:23.011Z,19.10
2018-07-25T22:36:51.892Z,19.05
2018-07-25T22:39:20.574Z,19.07
2018-07-25T22:41:49.218Z,19.05
2018-07-25T22:44:18.111Z,19.04
2018-07-25T22:46:46.739Z,19.02
2018-07-25T22:49:15.362Z,19.08
2018-07-25T22:51:44.275Z,19.13
2018-07-25T22:54:13.222Z,19.16
2018-07-25T22:56:42.005Z,19.17
2018-07-25T22:59:10.647Z,19.19
2018-07-25T23:01:39.536Z,19.23
2018-07-25T23:04:08.158Z,19.23
2018-07-25T23:06:36.783Z,19.16
2018-07-25T23:09:08.171Z,19.13
2018-07-25T23:11:36.864Z,19.16
2018-07-25T23:14:05.572Z,19.08
2018-07-25T23:16:34.263Z,19.02
2018-07-25T23:19:02.890Z,19.05
2018-07-25T23:21:31.485Z,19.12
2018-07-25T23:24:00.156Z,19.13
2018-07-25T23:26:28.859Z,19.13
2018-07-25T23:28:57.523Z,19.07
2018-07-25T23:31:26.249Z,19.03
2018-07-25T23:33:54.903Z,19.01
2018-07-25T23:36:23.832Z,19.03
2018-07-25T23:38:52.479Z,19.07
2018-07-25T23:41:21.111Z,19.05
2018-07-25T23:43:49.751Z,18.99
2018-07-25T23:46:18.824Z,18.94
2018-07-25T23:48:47.415Z,18.94
2018-07-25T23:51:16.081Z,18.92
2018-07-25T23:53:45.371Z,18.89
2018-07-25T23:56:14.075Z,18.87
2018-07-25T23:58:42.781Z,18.91
